createdAt,value
2019-02-03T00:01:39.724Z,91.87
2019-02-03T00:04:07.942Z,96.05
2019-02-03T00:06:36.564Z,100.02
2019-02-03T00:09:10.714Z,69.32
2019-02-03T00:11:37.869Z,93.15
2019-02-03T00:14:05.121Z,107.22
2019-02-03T00:16:32.753Z,93.33
2019-02-03T00:19:00.529Z,92.42
2019-02-03T00:21:27.625Z,111.00
2019-02-03T00:23:54.651Z,106.45
2019-02-03T00:26:22.157Z,199.93
2019-02-03T00:28:49.224Z,202.70
2019-02-03T00:31:17.733Z,97.53
2019-02-03T00:33:44.495Z,100.67
2019-02-03T00:36:11.267Z,137.65
2019-02-03T00:38:38.723Z,118.77
2019-02-03T00:41:06.324Z,115.22
2019-02-03T00:43:33.333Z,106.00
2019-02-03T00:46:00.435Z,101.15
2019-02-03T00:48:27.101Z,100.80
2019-02-03T00:50:54.167Z,110.75
2019-02-03T00:53:21.872Z,95.50
2019-02-03T00:55:48.745Z,127.72
2019-02-03T00:58:15.993Z,103.02
2019-02-03T01:00:43.193Z,110.95
2019-02-03T01:03:10.587Z,160.07
2019-02-03T01:05:38.067Z,115.67
2019-02-03T01:08:06.602Z,123.47
2019-02-03T01:10:33.754Z,102.72
2019-02-03T01:13:01.752Z,121.62
2019-02-03T01:15:28.521Z,118.77
2019-02-03T01:17:55.410Z,108.37
2019-02-03T01:20:22.539Z,125.47
2019-02-03T01:22:50.001Z,107.47
2019-02-03T01:25:17.185Z,110.20
2019-02-03T01:27:44.703Z,105.97
2019-02-03T01:30:17.451Z,95.75
2019-02-03T01:32:45.775Z,101.95
2019-02-03T01:35:13.200Z,103.02
2019-02-03T01:37:41.024Z,99.28
2019-02-03T01:40:12.017Z,112.05
2019-02-03T01:42:39.486Z,118.30
2019-02-03T01:45:08.632Z,113.72
2019-02-03T01:47:37.418Z,109.42
2019-02-03T01:50:05.919Z,105.30
2019-02-03T01:52:33.314Z,104.97
2019-02-03T01:55:00.953Z,111.55
2019-02-03T01:57:28.142Z,108.20
2019-02-03T01:59:55.463Z,103.55
2019-02-03T02:02:23.247Z,103.22
2019-02-03T02:04:50.233Z,107.37
2019-02-03T02:07:17.175Z,105.12
2019-02-03T02:09:44.262Z,105.27
2019-02-03T02:12:11.047Z,93.75
2019-02-03T02:14:37.740Z,107.25
2019-02-03T02:17:05.062Z,106.35
2019-02-03T02:19:32.766Z,101.12
2019-02-03T02:22:00.545Z,99.03
2019-02-03T02:24:27.696Z,98.22
2019-02-03T02:26:55.065Z,101.07
2019-02-03T02:29:21.848Z,112.62
2019-02-03T02:31:49.226Z,110.28
2019-02-03T02:34:15.925Z,77.75
2019-02-03T02:36:42.959Z,105.07
2019-02-03T02:39:11.203Z,106.90
2019-02-03T02:41:38.445Z,103.45
2019-02-03T02:44:06.075Z,89.05
2019-02-03T02:46:32.856Z,88.92
2019-02-03T02:48:59.798Z,95.10
2019-02-03T02:51:27.425Z,99.47
2019-02-03T02:53:54.221Z,99.85
2019-02-03T02:56:21.458Z,92.27
2019-02-03T02:58:48.614Z,105.58
2019-02-03T03:01:15.706Z,88.25
2019-02-03T03:03:43.494Z,97.92
2019-02-03T03:06:10.361Z,93.62
2019-02-03T03:08:37.511Z,97.67
2019-02-03T03:11:54.541Z,92.00
2019-02-03T03:17:17.916Z,92.47
2019-02-03T03:19:45.349Z,89.15
2019-02-03T03:22:12.106Z,87.27
2019-02-03T03:24:38.799Z,90.22
2019-02-03T03:27:07.905Z,90.50
2019-02-03T03:29:34.836Z,85.55
2019-02-03T03:32:02.375Z,88.95
2019-02-03T03:34:29.271Z,93.30
2019-02-03T03:36:56.321Z,80.92
2019-02-03T03:39:23.034Z,80.85
2019-02-03T03:41:49.803Z,80.83
2019-02-03T03:44:17.271Z,80.35
2019-02-03T03:46:44.718Z,76.67
2019-02-03T03:49:11.515Z,83.72
2019-02-03T03:51:39.127Z,82.22
2019-02-03T03:54:06.023Z,79.87
2019-02-03T03:56:33.118Z,74.50
2019-02-03T03:59:00.885Z,86.35
2019-02-03T04:01:29.457Z,78.05
2019-02-03T04:03:56.909Z,83.33
2019-02-03T04:06:24.507Z,76.72
2019-02-03T04:08:51.530Z,65.62
2019-02-03T04:11:18.347Z,77.82
2019-02-03T04:13:45.528Z,63.35
2019-02-03T04:16:13.182Z,50.78
2019-02-03T04:18:40.833Z,73.17
2019-02-03T04:21:07.994Z,67.20
2019-02-03T04:23:35.442Z,81.57
2019-02-03T04:26:02.207Z,92.12
2019-02-03T04:28:28.912Z,89.92
2019-02-03T04:30:56.377Z,70.05
2019-02-03T04:33:23.054Z,69.65
2019-02-03T04:35:49.721Z,72.08
2019-02-03T04:38:16.793Z,72.22
2019-02-03T04:40:44.373Z,66.00
2019-02-03T04:43:11.178Z,74.20
2019-02-03T04:45:38.244Z,66.90
2019-02-03T04:48:05.038Z,67.70
2019-02-03T04:50:35.082Z,61.25
2019-02-03T04:53:02.130Z,60.58
2019-02-03T04:55:29.518Z,54.33
2019-02-03T04:57:56.854Z,34.15
2019-02-03T05:00:24.538Z,44.93
2019-02-03T05:02:52.176Z,59.67
2019-02-03T05:05:20.218Z,65.50
2019-02-03T05:07:50.361Z,63.80
2019-02-03T05:10:18.518Z,63.20
2019-02-03T05:12:46.445Z,61.95
2019-02-03T05:15:16.379Z,58.28
2019-02-03T05:17:43.515Z,63.13
2019-02-03T05:20:12.447Z,52.08
2019-02-03T05:22:39.251Z,55.65
2019-02-03T05:25:08.945Z,37.83
2019-02-03T05:27:36.073Z,55.28
2019-02-03T05:30:05.938Z,53.55
2019-02-03T05:32:32.840Z,49.75
2019-02-03T05:35:00.727Z,55.50
2019-02-03T05:37:27.603Z,27.42
2019-02-03T05:39:55.160Z,56.35
2019-02-03T05:42:23.044Z,56.80
2019-02-03T05:44:50.630Z,48.83
2019-02-03T05:47:18.804Z,55.50
2019-02-03T05:49:45.472Z,50.90
2019-02-03T05:52:12.481Z,54.35
2019-02-03T05:54:39.444Z,53.92
2019-02-03T05:57:06.474Z,49.70
2019-02-03T05:59:33.322Z,47.53
2019-02-03T06:02:01.090Z,53.80
2019-02-03T06:04:28.309Z,49.30
2019-02-03T06:06:55.567Z,42.13
2019-02-03T06:09:22.461Z,51.10
2019-02-03T06:11:49.969Z,48.28
2019-02-03T06:14:16.758Z,47.60
2019-02-03T06:16:43.886Z,53.42
2019-02-03T06:19:11.648Z,39.80
2019-02-03T06:21:39.890Z,41.33
2019-02-03T06:24:06.960Z,51.73
2019-02-03T06:26:34.351Z,48.83
2019-02-03T06:29:01.699Z,42.45
2019-02-03T06:31:28.802Z,46.18
2019-02-03T06:33:55.591Z,46.15
2019-02-03T06:36:23.182Z,43.87
2019-02-03T06:38:52.360Z,56.33
2019-02-03T06:41:19.021Z,47.27
2019-02-03T06:43:46.876Z,45.17
2019-02-03T06:46:31.921Z,49.50
2019-02-03T06:49:02.064Z,36.65
2019-02-03T06:51:29.974Z,41.45
2019-02-03T06:53:57.135Z,42.20
2019-02-03T06:56:24.698Z,46.70
2019-02-03T06:58:52.354Z,41.83
2019-02-03T07:01:19.609Z,41.23
2019-02-03T07:03:46.663Z,40.78
2019-02-03T07:06:13.863Z,41.15
2019-02-03T07:08:41.878Z,49.77
2019-02-03T07:11:09.125Z,42.60
2019-02-03T07:13:35.904Z,41.05
2019-02-03T07:16:02.820Z,48.08
2019-02-03T07:18:29.473Z,43.15
2019-02-03T07:20:56.153Z,36.00
2019-02-03T07:23:23.408Z,37.55
2019-02-03T07:25:50.317Z,42.73
2019-02-03T07:28:17.492Z,43.00
2019-02-03T07:30:45.321Z,48.28
2019-02-03T07:33:12.503Z,47.43
2019-02-03T07:35:40.118Z,39.98
2019-02-03T07:38:06.897Z,40.55
2019-02-03T07:40:34.726Z,36.77
2019-02-03T07:43:01.778Z,43.83
2019-02-03T07:45:28.543Z,40.00
2019-02-03T07:47:56.370Z,46.02
2019-02-03T07:50:23.707Z,48.33
2019-02-03T07:52:51.574Z,42.58
2019-02-03T07:55:18.610Z,42.10
2019-02-03T07:57:46.803Z,21.05
2019-02-03T08:00:14.713Z,43.98
2019-02-03T08:02:41.754Z,39.73
2019-02-03T08:05:08.543Z,39.45
2019-02-03T08:07:35.449Z,41.40
2019-02-03T08:10:03.642Z,41.23
2019-02-03T08:12:31.851Z,41.83
2019-02-03T08:14:59.272Z,40.30
2019-02-03T08:17:26.437Z,35.52
2019-02-03T08:19:54.117Z,30.35
2019-02-03T08:22:21.586Z,43.80
2019-02-03T08:24:48.744Z,37.42
2019-02-03T08:27:15.869Z,42.70
2019-02-03T08:29:42.786Z,41.92
2019-02-03T08:32:10.723Z,43.10
2019-02-03T08:34:38.122Z,31.57
2019-02-03T08:37:05.461Z,39.42
2019-02-03T08:39:32.538Z,32.75
2019-02-03T08:41:59.214Z,36.35
2019-02-03T08:44:27.627Z,36.13
2019-02-03T08:46:54.918Z,34.67
2019-02-03T08:49:23.137Z,43.58
2019-02-03T08:51:51.090Z,37.42
2019-02-03T08:54:20.647Z,33.80
2019-02-03T08:56:49.875Z,38.50
2019-02-03T08:59:17.847Z,43.38
2019-02-03T09:01:46.522Z,37.40
2019-02-03T09:04:15.183Z,35.25
2019-02-03T09:06:43.781Z,43.33
2019-02-03T09:09:11.804Z,30.40
2019-02-03T09:11:39.694Z,35.43
2019-02-03T09:14:17.728Z,34.03
2019-02-03T09:16:55.835Z,36.40
2019-02-03T09:19:25.755Z,29.98
2019-02-03T09:21:56.917Z,19.70
2019-02-03T09:24:24.394Z,26.10
2019-02-03T09:26:53.002Z,35.83
2019-02-03T09:29:20.186Z,29.30
2019-02-03T09:31:47.790Z,34.18
2019-02-03T09:34:15.403Z,32.33
2019-02-03T09:36:42.415Z,40.88
2019-02-03T09:40:38.117Z,33.35
2019-02-03T09:46:45.071Z,21.60
2019-02-03T09:49:14.110Z,26.82
2019-02-03T09:51:40.979Z,25.82
2019-02-03T09:54:08.677Z,24.47
2019-02-03T09:56:35.929Z,25.55
2019-02-03T09:59:03.993Z,22.40
2019-02-03T10:01:32.081Z,19.95
2019-02-03T10:03:59.728Z,13.53
2019-02-03T10:06:26.793Z,17.77
2019-02-03T10:08:54.330Z,19.62
2019-02-03T10:11:23.037Z,21.93
2019-02-03T10:13:49.875Z,15.90
2019-02-03T10:16:16.658Z,27.48
2019-02-03T10:18:44.897Z,18.17
2019-02-03T10:21:12.732Z,26.45
2019-02-03T10:23:41.426Z,18.82
2019-02-03T10:26:08.417Z,49.25
2019-02-03T10:28:36.749Z,41.90
2019-02-03T10:31:03.541Z,23.62
2019-02-03T10:33:30.800Z,18.92
2019-02-03T10:35:57.548Z,14.73
2019-02-03T10:38:24.918Z,12.93
2019-02-03T10:40:53.518Z,14.00
2019-02-03T10:43:21.505Z,13.62
2019-02-03T10:45:48.937Z,15.93
2019-02-03T10:48:16.501Z,14.38
2019-02-03T10:50:43.675Z,10.58
2019-02-03T10:53:10.851Z,14.83
2019-02-03T10:55:37.748Z,8.93
2019-02-03T10:58:05.497Z,14.60
2019-02-03T11:00:33.898Z,8.85
2019-02-03T11:03:01.461Z,10.63
2019-02-03T11:05:31.410Z,9.03
2019-02-03T11:08:00.084Z,9.55
2019-02-03T11:10:27.749Z,13.00
2019-02-03T11:12:55.475Z,21.50
2019-02-03T11:15:23.028Z,13.05
2019-02-03T11:17:50.490Z,9.08
2019-02-03T11:20:22.443Z,9.15
2019-02-03T11:22:50.121Z,13.25
2019-02-03T11:25:18.744Z,11.43
2019-02-03T11:27:46.973Z,10.20
2019-02-03T11:30:16.759Z,11.73
2019-02-03T11:32:44.109Z,8.78
2019-02-03T11:35:12.728Z,10.32
2019-02-03T11:37:40.583Z,8.75
2019-02-03T11:40:10.554Z,11.08
2019-02-03T11:42:37.647Z,8.58
2019-02-03T11:45:05.831Z,10.00
2019-02-03T11:47:33.409Z,9.48
2019-02-03T11:50:00.395Z,8.30
2019-02-03T11:52:27.816Z,8.63
2019-02-03T11:54:55.545Z,14.40
2019-02-03T11:57:23.423Z,10.93
2019-02-03T11:59:50.480Z,10.72
2019-02-03T12:02:17.808Z,12.50
2019-02-03T12:04:44.992Z,15.10
2019-02-03T12:07:11.991Z,9.65
2019-02-03T12:09:38.697Z,9.55
2019-02-03T12:12:05.941Z,9.00
2019-02-03T12:14:32.642Z,10.85
2019-02-03T12:17:08.839Z,8.65
2019-02-03T12:19:36.669Z,9.88
2019-02-03T12:22:04.171Z,9.38
2019-02-03T12:24:31.293Z,9.15
2019-02-03T12:26:58.844Z,8.25
2019-02-03T12:29:28.543Z,16.90
2019-02-03T12:31:54.679Z,8.88
2019-02-03T12:34:21.739Z,8.80
2019-02-03T12:36:49.488Z,17.35
2019-02-03T12:39:17.248Z,7.85
2019-02-03T12:41:44.331Z,9.10
2019-02-03T12:44:11.165Z,10.15
2019-02-03T12:46:38.935Z,8.55
2019-02-03T12:49:05.863Z,10.72
2019-02-03T12:51:32.573Z,8.73
2019-02-03T12:54:00.458Z,9.68
2019-02-03T12:56:29.041Z,13.18
2019-02-03T12:58:55.961Z,6.62
2019-02-03T13:01:23.026Z,7.62
2019-02-03T13:03:49.803Z,9.10
2019-02-03T13:06:17.741Z,8.25
2019-02-03T13:08:44.886Z,10.00
2019-02-03T13:11:12.552Z,8.30
2019-02-03T13:13:39.893Z,7.15
2019-02-03T13:16:07.059Z,9.45
2019-02-03T13:18:34.229Z,8.30
2019-02-03T13:21:01.451Z,6.53
2019-02-03T13:23:28.974Z,7.40
2019-02-03T13:25:56.277Z,7.80
2019-02-03T13:28:23.188Z,5.93
2019-02-03T13:30:50.457Z,7.80
2019-02-03T13:33:17.919Z,7.20
2019-02-03T13:35:44.800Z,8.87
2019-02-03T13:38:11.833Z,10.80
2019-02-03T13:40:41.688Z,11.93
2019-02-03T13:43:09.488Z,9.97
2019-02-03T13:45:38.658Z,6.00
2019-02-03T13:48:06.869Z,6.30
2019-02-03T13:50:34.529Z,6.23
2019-02-03T13:53:01.766Z,4.60
2019-02-03T13:55:28.842Z,8.23
2019-02-03T13:57:56.160Z,13.70
2019-02-03T14:00:28.581Z,7.30
2019-02-03T14:02:55.530Z,11.13
2019-02-03T14:05:22.956Z,9.77
2019-02-03T14:07:49.901Z,9.40
2019-02-03T14:10:28.701Z,10.07
2019-02-03T14:12:57.716Z,9.00
2019-02-03T14:15:25.006Z,5.43
2019-02-03T14:17:53.114Z,7.50
2019-02-03T14:20:22.706Z,15.63
2019-02-03T14:22:50.826Z,7.37
2019-02-03T14:25:19.110Z,11.20
2019-02-03T14:27:46.655Z,9.17
2019-02-03T14:30:40.872Z,12.40
2019-02-03T14:33:07.510Z,6.77
2019-02-03T14:35:34.717Z,12.73
2019-02-03T14:38:03.215Z,10.30
2019-02-03T14:40:31.376Z,7.40
2019-02-03T14:43:02.005Z,10.27
2019-02-03T14:45:27.919Z,7.30
2019-02-03T14:47:55.083Z,8.27
2019-02-03T14:50:21.950Z,11.30
2019-02-03T14:52:49.985Z,10.00
2019-02-03T14:55:19.642Z,12.25
2019-02-03T14:57:47.982Z,11.97
2019-02-03T15:00:23.863Z,25.02
2019-02-03T15:02:51.362Z,12.13
2019-02-03T15:05:20.179Z,14.73
2019-02-03T15:07:48.251Z,11.08
2019-02-03T15:10:16.421Z,12.40
2019-02-03T15:12:43.935Z,20.43
2019-02-03T15:15:12.738Z,12.33
2019-02-03T15:17:43.352Z,18.85
2019-02-03T15:20:13.927Z,14.43
2019-02-03T15:22:51.352Z,271.50
2019-02-03T15:25:18.492Z,94.10
2019-02-03T15:27:45.526Z,22.27
2019-02-03T15:30:21.695Z,72.32
2019-02-03T15:32:49.219Z,25.03
2019-02-03T15:35:16.548Z,15.03
2019-02-03T15:37:43.688Z,29.65
2019-02-03T15:40:12.171Z,19.17
2019-02-03T15:42:39.363Z,42.83
2019-02-03T15:45:08.219Z,23.47
2019-02-03T15:47:36.010Z,29.83
2019-02-03T15:50:05.294Z,28.83
2019-02-03T15:52:32.874Z,16.73
2019-02-03T15:55:00.307Z,16.77
2019-02-03T15:57:30.499Z,13.65
2019-02-03T15:59:58.049Z,18.85
2019-02-03T16:02:25.689Z,19.82
2019-02-03T16:04:52.914Z,11.25
2019-02-03T16:07:19.579Z,11.57
2019-02-03T16:09:46.946Z,9.33
2019-02-03T16:12:14.243Z,12.73
2019-02-03T16:14:41.651Z,22.52
2019-02-03T16:17:09.749Z,12.63
2019-02-03T16:19:37.986Z,10.13
2019-02-03T16:22:05.250Z,10.25
2019-02-03T16:24:32.487Z,12.43
2019-02-03T16:27:00.232Z,10.53
2019-02-03T16:29:27.289Z,8.55
2019-02-03T16:31:54.234Z,13.40
2019-02-03T16:34:20.922Z,13.38
2019-02-03T16:36:48.129Z,10.80
2019-02-03T16:39:15.032Z,10.43
2019-02-03T16:41:41.933Z,9.93
2019-02-03T16:44:09.521Z,7.62
2019-02-03T16:46:58.570Z,10.13
2019-02-03T16:49:26.578Z,7.60
2019-02-03T16:51:55.975Z,10.85
2019-02-03T16:54:23.575Z,10.43
2019-02-03T16:56:59.603Z,9.23
2019-02-03T16:59:29.670Z,10.90
2019-02-03T17:01:56.878Z,14.68
2019-02-03T17:04:24.693Z,12.45
2019-02-03T17:06:52.005Z,30.55
2019-02-03T17:09:19.578Z,8.40
2019-02-03T17:11:49.402Z,13.32
2019-02-03T17:14:16.500Z,7.50
2019-02-03T17:16:43.982Z,9.00
2019-02-03T17:19:10.661Z,10.58
2019-02-03T17:21:37.873Z,7.03
2019-02-03T17:24:05.840Z,8.83
2019-02-03T17:26:33.839Z,7.08
2019-02-03T17:29:01.746Z,8.30
2019-02-03T17:31:28.759Z,11.20
2019-02-03T17:33:56.382Z,11.57
2019-02-03T17:36:23.725Z,13.90
2019-02-03T17:38:53.895Z,12.15
2019-02-03T17:41:20.709Z,7.47
2019-02-03T17:43:47.502Z,6.47
2019-02-03T17:46:15.181Z,8.28
2019-02-03T17:48:43.706Z,8.88
2019-02-03T17:51:11.005Z,8.50
2019-02-03T17:53:37.780Z,8.35
2019-02-03T17:56:05.342Z,8.83
2019-02-03T17:58:32.921Z,12.58
2019-02-03T18:01:03.042Z,10.13
2019-02-03T18:03:30.478Z,7.22
2019-02-03T18:05:58.149Z,11.88
2019-02-03T18:08:25.372Z,18.95
2019-02-03T18:10:52.254Z,9.78
2019-02-03T18:13:20.088Z,6.95
2019-02-03T18:15:47.306Z,9.90
2019-02-03T18:18:13.974Z,13.88
2019-02-03T18:20:40.676Z,8.80
2019-02-03T18:23:08.222Z,13.78
2019-02-03T18:25:36.057Z,7.37
2019-02-03T18:28:04.007Z,5.08
2019-02-03T18:30:31.863Z,7.00
2019-02-03T18:32:59.638Z,6.05
2019-02-03T18:35:26.314Z,3.35
2019-02-03T18:37:54.244Z,10.35
2019-02-03T18:40:21.498Z,8.50
2019-02-03T18:42:49.378Z,9.15
2019-02-03T18:45:24.459Z,7.65
2019-02-03T18:47:51.450Z,11.45
2019-02-03T18:50:19.965Z,7.20
2019-02-03T18:52:48.902Z,13.38
2019-02-03T18:55:19.803Z,28.92
2019-02-03T18:57:46.907Z,5.50
2019-02-03T19:00:16.906Z,7.80
2019-02-03T19:02:44.107Z,6.70
2019-02-03T19:05:13.378Z,8.20
2019-02-03T19:07:41.038Z,11.10
2019-02-03T19:10:12.319Z,12.43
2019-02-03T19:12:39.839Z,6.95
2019-02-03T19:15:08.854Z,12.23
2019-02-03T19:17:36.768Z,8.50
2019-02-03T19:20:06.327Z,13.55
2019-02-03T19:22:33.953Z,5.40
2019-02-03T19:25:01.963Z,8.65
2019-02-03T19:27:29.267Z,6.42
2019-02-03T19:29:56.074Z,5.62
2019-02-03T19:32:23.128Z,8.20
2019-02-03T19:34:50.943Z,8.45
2019-02-03T19:37:18.907Z,7.30
2019-02-03T19:39:46.149Z,7.62
2019-02-03T19:42:13.227Z,11.40
2019-02-03T19:44:40.980Z,11.45
2019-02-03T19:47:08.479Z,7.42
2019-02-03T19:49:46.255Z,15.28
2019-02-03T19:52:06.837Z,9.25
2019-02-03T19:54:34.746Z,7.50
2019-02-03T19:57:02.305Z,3.52
2019-02-03T19:59:29.259Z,10.68
2019-02-03T20:01:57.165Z,8.35
2019-02-03T20:04:24.727Z,12.95
2019-02-03T20:06:51.969Z,4.80
2019-02-03T20:09:19.914Z,11.22
2019-02-03T20:11:46.999Z,3.47
2019-02-03T20:14:14.763Z,6.65
2019-02-03T20:16:42.419Z,32.58
2019-02-03T20:19:09.668Z,13.15
2019-02-03T20:21:37.053Z,9.03
2019-02-03T20:24:04.629Z,6.58
2019-02-03T20:26:32.603Z,16.57
2019-02-03T20:28:59.440Z,7.08
2019-02-03T20:31:26.958Z,11.63
2019-02-03T20:33:57.765Z,8.98
2019-02-03T20:36:25.690Z,6.45
2019-02-03T20:38:52.878Z,9.90
2019-02-03T20:41:20.291Z,7.70
2019-02-03T20:43:48.408Z,7.50
2019-02-03T20:46:15.924Z,12.90
2019-02-03T20:48:43.293Z,10.65
2019-02-03T20:51:11.419Z,19.90
2019-02-03T20:53:39.884Z,6.87
2019-02-03T20:56:08.269Z,5.35
2019-02-03T20:58:35.832Z,9.18
2019-02-03T21:01:04.210Z,7.42
2019-02-03T21:03:32.194Z,13.05
2019-02-03T21:05:59.438Z,12.78
2019-02-03T21:08:27.059Z,5.12
2019-02-03T21:10:55.045Z,6.62
2019-02-03T21:13:21.717Z,3.08
2019-02-03T21:15:49.558Z,5.62
2019-02-03T21:18:17.171Z,6.80
2019-02-03T21:20:45.553Z,12.13
2019-02-03T21:23:13.280Z,6.85
2019-02-03T21:25:41.469Z,10.75
2019-02-03T21:28:09.813Z,5.08
2019-02-03T21:30:38.004Z,5.95
2019-02-03T21:33:06.190Z,10.30
2019-02-03T21:35:33.311Z,13.68
2019-02-03T21:38:01.843Z,5.60
2019-02-03T21:40:30.769Z,3.50
2019-02-03T21:42:58.638Z,4.30
2019-02-03T21:45:26.735Z,11.70
2019-02-03T21:47:54.508Z,5.00
2019-02-03T21:50:24.062Z,9.75
2019-02-03T21:52:54.057Z,6.45
2019-02-03T21:55:22.295Z,9.35
2019-02-03T21:57:50.893Z,5.15
2019-02-03T22:00:23.418Z,11.00
2019-02-03T22:02:50.915Z,10.55
2019-02-03T22:05:17.681Z,10.68
2019-02-03T22:07:45.226Z,11.65
2019-02-03T22:10:15.353Z,8.88
2019-02-03T22:12:42.247Z,12.37
2019-02-03T22:15:09.321Z,12.05
2019-02-03T22:17:37.475Z,6.15
2019-02-03T22:20:07.281Z,11.78
2019-02-03T22:22:35.076Z,11.35
2019-02-03T22:25:03.594Z,5.65
2019-02-03T22:27:31.543Z,10.08
2019-02-03T22:29:58.554Z,6.55
2019-02-03T22:32:26.403Z,8.73
2019-02-03T22:34:53.466Z,6.85
2019-02-03T22:37:21.407Z,24.92
2019-02-03T22:39:48.185Z,11.75
2019-02-03T22:42:15.395Z,4.80
2019-02-03T22:44:42.894Z,5.58
2019-02-03T22:47:09.573Z,13.98
2019-02-03T22:49:36.861Z,11.80
2019-02-03T22:52:04.640Z,15.78
2019-02-03T22:54:31.414Z,17.30
2019-02-03T22:56:58.836Z,10.28
2019-02-03T22:59:26.279Z,10.35
2019-02-03T23:01:53.062Z,6.25
2019-02-03T23:04:23.677Z,10.98
2019-02-03T23:06:51.020Z,5.75
2019-02-03T23:09:22.642Z,6.67
2019-02-03T23:11:49.938Z,5.70
2019-02-03T23:14:17.397Z,10.80
2019-02-03T23:16:44.397Z,20.55
2019-02-03T23:19:11.717Z,7.17
2019-02-03T23:21:39.265Z,12.70
2019-02-03T23:24:06.025Z,4.72
2019-02-03T23:26:33.184Z,13.88
2019-02-03T23:28:59.997Z,5.78
2019-02-03T23:31:26.860Z,8.55
2019-02-03T23:33:53.757Z,7.15
2019-02-03T23:36:21.297Z,7.15
2019-02-03T23:38:48.626Z,10.43
2019-02-03T23:41:16.374Z,9.90
2019-02-03T23:43:43.584Z,5.15
2019-02-03T23:46:11.151Z,8.28
2019-02-03T23:48:38.068Z,10.65
2019-02-03T23:51:04.853Z,10.00
2019-02-03T23:53:33.132Z,18.00
2019-02-03T23:56:00.466Z,10.65
2019-02-03T23:58:27.129Z,23.67
